Time;durP1;ratioP1;P1;durP2;ratioP2;P2;SDS_P1;SDS_P2;PMS_P1;PMS_P2;Temp;Humidity;BMP_temperature;BMP_pressure;BME280_temperature;BME280_humidity;BME280_pressure;Samples;Min_cycle;Max_cycle;Signal;HPM_P1;HPM_P2
2023/12/24 00:00:46;;;;;;;0.75;0.25;;;7.50;71.00;;;;;;4941024;29;20054;-74
2023/12/24 00:03:12;;;;;;;0.55;0.20;;;7.50;71.40;;;;;;4941320;29;20019;-74
2023/12/24 00:05:37;;;;;;;0.30;0.17;;;7.50;70.30;;;;;;4958402;29;20416;-75
2023/12/24 00:08:03;;;;;;;0.98;0.20;;;7.60;70.70;;;;;;4958187;29;20402;-75
2023/12/24 00:10:28;;;;;;;0.28;0.20;;;7.50;71.10;;;;;;4941209;29;20035;-75
2023/12/24 00:12:54;;;;;;;0.43;0.20;;;7.60;71.60;;;;;;4941126;29;20380;-75
2023/12/24 00:15:21;;;;;;;0.25;0.13;;;7.50;70.90;;;;;;4958204;29;20481;-75
2023/12/24 00:17:46;;;;;;;0.40;0.20;;;7.50;71.00;;;;;;4941155;29;20487;-75
2023/12/24 00:20:12;;;;;;;1.10;0.40;;;7.50;71.60;;;;;;4957991;29;20023;-75
2023/12/24 00:22:37;;;;;;;0.40;0.30;;;7.50;71.20;;;;;;4941190;29;20035;-74
2023/12/24 00:25:03;;;;;;;1.02;0.50;;;7.50;71.00;;;;;;4957888;28;20038;-75
2023/12/24 00:27:29;;;;;;;0.47;0.20;;;7.50;70.70;;;;;;4957998;29;20027;-75
2023/12/24 00:29:54;;;;;;;0.40;0.22;;;7.50;71.10;;;;;;4940623;29;20576;-75
2023/12/24 00:32:20;;;;;;;0.25;0.20;;;7.50;71.30;;;;;;4940941;29;20114;-75
2023/12/24 00:34:45;;;;;;;0.82;0.32;;;7.40;71.60;;;;;;4957793;29;20069;-75
2023/12/24 00:37:11;;;;;;;0.57;0.30;;;7.40;71.80;;;;;;4957977;29;20031;-75
2023/12/24 00:39:36;;;;;;;0.10;0.10;;;7.40;72.00;;;;;;4957654;29;20027;-75
2023/12/24 00:42:02;;;;;;;0.90;0.40;;;7.40;71.80;;;;;;4957664;29;20056;-76
2023/12/24 00:44:27;;;;;;;0.75;0.30;;;7.30;71.90;;;;;;4957456;29;20067;-75
2023/12/24 00:46:53;;;;;;;0.20;0.20;;;7.40;71.60;;;;;;4957441;29;20062;-75
2023/12/24 00:49:18;;;;;;;0.57;0.22;;;7.40;71.30;;;;;;4957531;29;20034;-75
2023/12/24 00:51:44;;;;;;;0.40;0.38;;;7.40;70.50;;;;;;4957573;29;20098;-75
2023/12/24 00:54:13;;;;;;;0.57;0.30;;;7.40;71.10;;;;;;4957427;28;20023;-75
2023/12/24 00:56:38;;;;;;;0.75;0.30;;;7.50;71.20;;;;;;4940149;28;20040;-76
2023/12/24 00:59:04;;;;;;;0.88;0.38;;;7.40;71.30;;;;;;4940404;29;20030;-74
2023/12/24 01:01:29;;;;;;;0.50;0.35;;;7.40;71.40;;;;;;4940306;29;20019;-74
2023/12/24 01:03:55;;;;;;;0.20;0.20;;;7.40;71.60;;;;;;4940201;29;20143;-74
2023/12/24 01:06:20;;;;;;;0.20;0.20;;;7.40;71.70;;;;;;4940055;29;20062;-74
2023/12/24 01:08:46;;;;;;;0.20;0.10;;;7.30;72.10;;;;;;4956758;29;20408;-74
2023/12/24 01:11:12;;;;;;;0.43;0.20;;;7.40;71.70;;;;;;4956835;28;20102;-74
2023/12/24 01:13:38;;;;;;;0.20;0.13;;;7.30;71.60;;;;;;4939536;29;20380;-74
2023/12/24 01:16:04;;;;;;;0.20;0.20;;;7.40;71.50;;;;;;4939955;29;20054;-75
2023/12/24 01:18:30;;;;;;;0.20;0.20;;;7.40;71.60;;;;;;4956544;29;20099;-75
2023/12/24 01:20:56;;;;;;;0.30;0.10;;;7.30;71.60;;;;;;4939750;29;20039;-75
2023/12/24 01:23:23;;;;;;;0.63;0.20;;;7.30;71.90;;;;;;4939713;29;20476;-75
2023/12/24 01:25:48;;;;;;;0.15;0.15;;;7.30;72.00;;;;;;4939886;29;20031;-75
2023/12/24 01:28:14;;;;;;;1.52;0.15;;;7.40;71.20;;;;;;4939686;29;20023;-75
2023/12/24 01:30:41;;;;;;;0.15;0.15;;;7.40;71.30;;;;;;4939942;29;20043;-76
2023/12/24 01:33:06;;;;;;;0.93;0.20;;;7.30;71.40;;;;;;4939780;29;20078;-75
2023/12/24 01:35:33;;;;;;;0.30;0.20;;;7.30;71.00;;;;;;4956626;28;20066;-75
2023/12/24 01:37:59;;;;;;;0.30;0.20;;;7.40;71.20;;;;;;4939781;29;20062;-74
2023/12/24 01:40:24;;;;;;;0.57;0.20;;;7.40;71.10;;;;;;4939133;29;20362;-75
2023/12/24 01:42:50;;;;;;;0.20;0.10;;;7.30;71.20;;;;;;4939635;29;20023;-74
2023/12/24 01:45:15;;;;;;;0.60;0.28;;;7.40;71.20;;;;;;4939521;29;20019;-74
2023/12/24 01:47:43;;;;;;;0.28;0.20;;;7.40;71.00;;;;;;4939423;29;20507;-75
2023/12/24 01:50:09;;;;;;;0.32;0.20;;;7.40;71.10;;;;;;4939268;29;20039;-75
2023/12/24 01:52:35;;;;;;;0.47;0.30;;;7.30;71.50;;;;;;4939283;29;20031;-75
2023/12/24 01:55:01;;;;;;;0.35;0.20;;;7.30;71.10;;;;;;4955819;28;20046;-75
2023/12/24 01:57:30;;;;;;;0.85;0.20;;;7.30;71.20;;;;;;4958015;28;20053;-75
2023/12/24 01:59:56;;;;;;;0.10;0.10;;;7.30;71.30;;;;;;4958308;28;20534;-75
2023/12/24 02:02:25;;;;;;;0.30;0.22;;;7.20;71.30;;;;;;4958316;28;20039;-75
2023/12/24 02:04:50;;;;;;;1.45;0.32;;;7.30;71.30;;;;;;4958359;28;20022;-75
2023/12/24 02:07:17;;;;;;;0.20;0.20;;;7.30;71.70;;;;;;4958261;28;20030;-75
2023/12/24 02:09:43;;;;;;;0.30;0.30;;;7.30;71.30;;;;;;4958093;28;20542;-75
2023/12/24 02:12:08;;;;;;;0.73;0.30;;;7.30;71.40;;;;;;4958105;28;20034;-75
2023/12/24 02:14:35;;;;;;;0.20;0.20;;;7.30;71.30;;;;;;4958200;28;20019;-75
2023/12/24 02:17:04;;;;;;;0.68;0.25;;;7.30;71.40;;;;;;4958585;28;20031;-75
2023/12/24 02:19:30;;;;;;;0.50;0.28;;;7.30;71.40;;;;;;4960388;28;20077;-75
2023/12/24 02:21:55;;;;;;;1.20;0.60;;;7.20;70.90;;;;;;4960242;28;20403;-76
2023/12/24 02:24:21;;;;;;;0.95;0.57;;;7.30;71.20;;;;;;4958584;28;20031;-75
2023/12/24 02:26:59;;;;;;;1.52;0.40;;;7.20;71.10;;;;;;4958804;28;20142;-75
2023/12/24 02:29:34;;;;;;;0.73;0.22;;;7.30;71.30;;;;;;4960383;28;20027;-75
2023/12/24 02:32:10;;;;;;;0.52;0.30;;;7.30;71.20;;;;;;4958288;28;20038;-74
2023/12/24 02:34:38;;;;;;;0.38;0.30;;;7.30;71.30;;;;;;4957499;28;20031;-78
2023/12/24 02:37:05;;;;;;;0.45;0.40;;;7.30;71.20;;;;;;4941888;28;20073;-75
2023/12/24 02:39:31;;;;;;;0.90;0.55;;;7.20;71.40;;;;;;4957727;28;20555;-75
2023/12/24 02:41:56;;;;;;;0.57;0.40;;;7.20;71.50;;;;;;4957705;28;20125;-76
2023/12/24 02:44:22;;;;;;;0.40;0.40;;;7.20;71.20;;;;;;4957709;28;20054;-76
2023/12/24 02:46:47;;;;;;;0.50;0.40;;;7.20;71.10;;;;;;4957327;28;20360;-76
2023/12/24 02:49:14;;;;;;;1.02;0.40;;;7.30;71.10;;;;;;4957261;28;20025;-75
2023/12/24 02:51:40;;;;;;;0.43;0.40;;;7.30;71.20;;;;;;4957303;28;20094;-75
2023/12/24 02:54:06;;;;;;;0.40;0.30;;;7.20;71.50;;;;;;4957132;28;20027;-75
2023/12/24 02:56:36;;;;;;;1.55;0.60;;;7.20;71.60;;;;;;4957189;28;20081;-76
2023/12/24 02:59:03;;;;;;;0.57;0.55;;;7.20;72.10;;;;;;4957326;28;20030;-76
2023/12/24 03:01:29;;;;;;;1.45;0.30;;;7.30;71.30;;;;;;4957344;28;20473;-76
2023/12/24 03:03:55;;;;;;;0.30;0.30;;;7.30;71.70;;;;;;4974373;28;20027;-76
2023/12/24 03:06:20;;;;;;;0.40;0.32;;;7.30;71.50;;;;;;4974567;28;20550;-74
2023/12/24 03:08:46;;;;;;;0.68;0.60;;;7.20;71.70;;;;;;4957151;28;20030;-75
2023/12/24 03:11:11;;;;;;;0.73;0.50;;;7.30;72.00;;;;;;4957095;28;20146;-75
2023/12/24 03:13:37;;;;;;;0.60;0.38;;;7.30;72.00;;;;;;4957181;28;20065;-75
2023/12/24 03:16:03;;;;;;;1.70;0.60;;;7.20;72.10;;;;;;4957231;28;20113;-75
2023/12/24 03:18:28;;;;;;;0.90;0.50;;;7.20;72.30;;;;;;4957270;28;20027;-75
2023/12/24 03:20:54;;;;;;;0.70;0.55;;;7.30;72.30;;;;;;4957399;28;20445;-75
2023/12/24 03:23:19;;;;;;;1.65;0.50;;;7.20;72.50;;;;;;4974222;28;20365;-75
2023/12/24 03:25:45;;;;;;;1.02;0.50;;;7.20;72.50;;;;;;4957163;28;20531;-75
2023/12/24 03:28:11;;;;;;;0.65;0.47;;;7.20;72.30;;;;;;4957099;28;20873;-74
2023/12/24 03:30:36;;;;;;;0.40;0.30;;;7.20;72.70;;;;;;4957003;28;20392;-75
2023/12/24 03:33:02;;;;;;;0.63;0.50;;;7.20;72.70;;;;;;4957130;28;20033;-75
2023/12/24 03:35:28;;;;;;;0.85;0.50;;;7.20;72.80;;;;;;4977256;28;20461;-74
2023/12/24 03:37:54;;;;;;;2.03;0.30;;;7.20;72.70;;;;;;4961043;28;20109;-74
2023/12/24 03:40:19;;;;;;;0.60;0.32;;;7.20;72.80;;;;;;4960984;28;20054;-74
2023/12/24 03:42:45;;;;;;;0.73;0.40;;;7.20;72.90;;;;;;4961008;28;20427;-74
2023/12/24 03:45:10;;;;;;;1.17;0.50;;;7.20;72.80;;;;;;4960891;28;20019;-73
2023/12/24 03:47:36;;;;;;;0.75;0.40;;;7.20;72.90;;;;;;4960706;28;20081;-74
2023/12/24 03:50:02;;;;;;;0.60;0.45;;;7.30;73.00;;;;;;4960802;28;20035;-75
2023/12/24 03:52:28;;;;;;;0.50;0.32;;;7.20;72.80;;;;;;4977651;28;20031;-74
2023/12/24 03:54:53;;;;;;;0.70;0.50;;;7.20;72.60;;;;;;4960719;28;20460;-75
2023/12/24 03:57:19;;;;;;;0.32;0.32;;;7.20;72.80;;;;;;4960403;28;20113;-75
2023/12/24 03:59:44;;;;;;;0.80;0.50;;;7.20;72.40;;;;;;4960548;28;20049;-75
2023/12/24 04:02:10;;;;;;;0.40;0.40;;;7.10;72.60;;;;;;4977577;28;20098;-75
2023/12/24 04:04:35;;;;;;;0.65;0.50;;;7.20;72.70;;;;;;4960459;28;20097;-75
2023/12/24 04:07:01;;;;;;;0.32;0.32;;;7.20;72.30;;;;;;4960076;28;20070;-76
2023/12/24 04:09:28;;;;;;;1.10;0.43;;;7.10;72.70;;;;;;4960208;28;20406;-76
2023/12/24 04:11:54;;;;;;;0.75;0.52;;;7.10;72.20;;;;;;4960146;28;20543;-75
2023/12/24 04:14:19;;;;;;;1.45;0.77;;;7.20;72.10;;;;;;4960402;28;20027;-75
2023/12/24 04:16:46;;;;;;;0.63;0.50;;;7.10;72.10;;;;;;4977409;28;20058;-75
2023/12/24 04:19:12;;;;;;;2.00;0.77;;;7.10;71.90;;;;;;4960343;28;20035;-75
2023/12/24 04:21:37;;;;;;;0.57;0.50;;;7.10;72.20;;;;;;4960109;28;20085;-76
2023/12/24 04:24:03;;;;;;;2.70;0.45;;;7.10;72.20;;;;;;4960302;28;20431;-75
2023/12/24 04:26:30;;;;;;;2.20;0.88;;;7.10;72.00;;;;;;4959954;28;20035;-76
2023/12/24 04:28:56;;;;;;;2.05;0.63;;;7.10;72.00;;;;;;4960068;28;20066;-76
2023/12/24 04:31:21;;;;;;;0.82;0.40;;;7.10;72.00;;;;;;4959995;28;20043;-75
2023/12/24 04:33:47;;;;;;;0.88;0.50;;;7.20;71.80;;;;;;4976925;28;20018;-75
2023/12/24 04:36:19;;;;;;;0.50;0.50;;;7.10;71.70;;;;;;4959883;28;20027;-75
2023/12/24 04:38:45;;;;;;;0.90;0.63;;;7.20;72.00;;;;;;4959673;28;20023;-75
2023/12/24 04:41:20;;;;;;;1.52;0.55;;;7.10;72.20;;;;;;4959887;28;20701;-75
2023/12/24 04:43:45;;;;;;;2.22;0.63;;;7.20;72.50;;;;;;4959488;28;20023;-75
2023/12/24 04:46:11;;;;;;;0.80;0.50;;;7.10;72.90;;;;;;4959086;28;20034;-75
2023/12/24 04:48:37;;;;;;;1.25;0.60;;;7.10;73.60;;;;;;4959586;28;20059;-75
2023/12/24 04:51:02;;;;;;;1.05;0.80;;;7.20;73.80;;;;;;4959647;28;20133;-75
2023/12/24 04:53:28;;;;;;;1.20;0.65;;;7.20;73.90;;;;;;4959500;28;20030;-75
2023/12/24 04:55:55;;;;;;;0.70;0.68;;;7.20;74.00;;;;;;4959526;28;20027;-75
2023/12/24 04:58:20;;;;;;;3.03;0.80;;;7.30;74.10;;;;;;4959053;28;20045;-75
2023/12/24 05:00:46;;;;;;;1.65;0.60;;;7.20;74.30;;;;;;4959432;28;20031;-75
2023/12/24 05:03:12;;;;;;;0.75;0.60;;;7.20;75.40;;;;;;4959241;28;20058;-75
2023/12/24 05:05:37;;;;;;;0.65;0.60;;;7.30;74.70;;;;;;4959303;28;20031;-74
2023/12/24 05:08:03;;;;;;;1.33;0.80;;;7.30;74.80;;;;;;4959359;28;20023;-74
2023/12/24 05:10:29;;;;;;;1.45;0.60;;;7.30;74.50;;;;;;4959111;28;20035;-74
2023/12/24 05:12:55;;;;;;;1.55;0.75;;;7.40;74.40;;;;;;4959161;28;20050;-74
2023/12/24 05:15:20;;;;;;;0.70;0.70;;;7.40;74.30;;;;;;4959214;28;20027;-74
2023/12/24 05:17:46;;;;;;;1.10;0.70;;;7.40;74.40;;;;;;4959164;28;20071;-74
2023/12/24 05:20:11;;;;;;;1.23;0.80;;;7.40;74.40;;;;;;4958820;28;20512;-73
2023/12/24 05:22:37;;;;;;;0.50;0.50;;;7.40;74.40;;;;;;4975693;28;20027;-73
2023/12/24 05:25:03;;;;;;;1.13;0.77;;;7.50;74.20;;;;;;4958691;28;20415;-74
2023/12/24 05:27:28;;;;;;;1.48;0.80;;;7.50;74.70;;;;;;4959027;28;20022;-74
2023/12/24 05:29:54;;;;;;;2.55;0.73;;;7.50;74.80;;;;;;4958707;28;20031;-74
2023/12/24 05:32:19;;;;;;;1.00;0.68;;;7.40;74.90;;;;;;4958669;28;20034;-74
2023/12/24 05:34:45;;;;;;;1.67;1.20;;;7.50;75.30;;;;;;4975825;28;20399;-74
2023/12/24 05:37:11;;;;;;;1.10;0.70;;;7.50;75.50;;;;;;4958899;28;20027;-74
2023/12/24 05:39:42;;;;;;;2.15;0.80;;;7.50;75.80;;;;;;4975910;28;20037;-74
2023/12/24 05:42:07;;;;;;;2.42;0.98;;;7.50;76.20;;;;;;4958801;28;20029;-75
2023/12/24 05:44:36;;;;;;;1.23;0.70;;;7.50;76.40;;;;;;4958518;28;20019;-75
2023/12/24 05:47:02;;;;;;;1.90;0.77;;;7.50;76.70;;;;;;4958636;28;20022;-74
2023/12/24 05:49:28;;;;;;;1.00;0.70;;;7.50;76.70;;;;;;4958362;28;20034;-75
2023/12/24 05:51:53;;;;;;;2.95;0.63;;;7.50;76.90;;;;;;4958578;28;20542;-72
2023/12/24 05:54:19;;;;;;;1.42;0.50;;;7.40;76.70;;;;;;4975735;28;20486;-73
2023/12/24 05:56:45;;;;;;;1.45;0.65;;;7.50;76.80;;;;;;4954232;28;20054;-75
2023/12/24 05:59:10;;;;;;;1.40;0.70;;;7.50;76.70;;;;;;4955275;29;20019;-74
2023/12/24 06:01:36;;;;;;;1.17;0.45;;;7.50;76.30;;;;;;4955138;29;20034;-74
2023/12/24 06:04:02;;;;;;;0.50;0.30;;;7.60;76.00;;;;;;4955055;29;20468;-74
2023/12/24 06:06:28;;;;;;;0.32;0.32;;;7.60;75.70;;;;;;4955230;29;20370;-73
2023/12/24 06:08:54;;;;;;;1.15;0.43;;;7.60;75.30;;;;;;4955130;29;20118;-74
2023/12/24 06:11:19;;;;;;;0.35;0.32;;;7.60;75.10;;;;;;4955913;29;20070;-75
2023/12/24 06:13:45;;;;;;;1.00;0.20;;;7.70;74.80;;;;;;4955696;29;20023;-74
2023/12/24 06:16:12;;;;;;;0.95;0.30;;;7.70;74.80;;;;;;4955316;29;20091;-76
2023/12/24 06:18:39;;;;;;;0.30;0.22;;;7.70;75.40;;;;;;4956963;29;20026;-75
2023/12/24 06:21:05;;;;;;;1.27;0.20;;;7.70;74.20;;;;;;4955462;29;20118;-75
2023/12/24 06:23:31;;;;;;;0.90;0.20;;;7.70;74.20;;;;;;4955149;29;20445;-75
2023/12/24 06:25:58;;;;;;;1.65;0.30;;;7.70;74.30;;;;;;4957662;28;20118;-76
2023/12/24 06:28:24;;;;;;;0.30;0.30;;;7.70;73.80;;;;;;4961897;29;20034;-76
2023/12/24 06:30:49;;;;;;;0.32;0.10;;;7.70;74.00;;;;;;4955687;29;20035;-76
2023/12/24 06:33:15;;;;;;;0.40;0.20;;;7.70;73.70;;;;;;4954785;29;20031;-75
2023/12/24 06:35:41;;;;;;;0.40;0.40;;;7.70;73.50;;;;;;4954166;29;20473;-76
2023/12/24 06:38:06;;;;;;;0.35;0.25;;;7.70;73.40;;;;;;4953820;29;20031;-75
2023/12/24 06:40:33;;;;;;;0.70;0.32;;;7.70;73.40;;;;;;4950901;29;20040;-75
2023/12/24 06:42:59;;;;;;;1.10;0.38;;;7.70;73.20;;;;;;4936260;29;20076;-75
2023/12/24 06:45:24;;;;;;;0.32;0.28;;;7.70;73.30;;;;;;4934965;29;20392;-75
2023/12/24 06:47:50;;;;;;;0.32;0.20;;;7.70;73.50;;;;;;4935262;29;20131;-75
2023/12/24 06:50:15;;;;;;;2.13;0.13;;;7.70;73.40;;;;;;4936117;29;20051;-76
2023/12/24 06:52:41;;;;;;;0.10;0.10;;;7.70;73.70;;;;;;4935069;29;20039;-76
2023/12/24 06:55:07;;;;;;;0.10;0.10;;;7.70;73.40;;;;;;4935161;29;20457;-75
2023/12/24 06:57:33;;;;;;;0.50;0.20;;;7.70;73.20;;;;;;4945912;29;20051;-75
2023/12/24 06:59:58;;;;;;;0.35;0.20;;;7.80;73.40;;;;;;4938263;29;20380;-75
2023/12/24 07:02:24;;;;;;;0.20;0.10;;;7.80;73.30;;;;;;4937939;29;20031;-75
2023/12/24 07:04:50;;;;;;;0.10;0.10;;;7.80;73.40;;;;;;4938191;29;20031;-76
2023/12/24 07:07:15;;;;;;;0.38;0.10;;;7.80;73.10;;;;;;4955050;28;20106;-76
2023/12/24 07:09:41;;;;;;;0.10;0.10;;;7.80;73.30;;;;;;4954833;28;20031;-75
2023/12/24 07:12:06;;;;;;;0.80;0.10;;;7.80;73.20;;;;;;4954942;28;20031;-76
2023/12/24 07:14:32;;;;;;;1.05;0.55;;;7.80;73.20;;;;;;4937598;29;20118;-76
2023/12/24 07:16:58;;;;;;;0.20;0.20;;;7.80;73.20;;;;;;4938093;29;20027;-76
2023/12/24 07:19:23;;;;;;;0.03;0.03;;;7.80;73.10;;;;;;4938042;29;20453;-75
2023/12/24 07:21:49;;;;;;;0.40;0.10;;;7.80;73.00;;;;;;4922185;29;20032;-75
2023/12/24 07:24:15;;;;;;;0.13;0.10;;;7.80;73.10;;;;;;4937932;29;20019;-75
2023/12/24 07:26:40;;;;;;;0.30;0.20;;;7.90;72.90;;;;;;4938110;29;20058;-75
2023/12/24 07:29:06;;;;;;;0.20;0.20;;;7.80;73.00;;;;;;4954793;28;20099;-75
2023/12/24 07:31:31;;;;;;;0.32;0.22;;;7.90;73.20;;;;;;4937572;29;20079;-74
2023/12/24 07:33:57;;;;;;;0.03;0.03;;;7.90;73.10;;;;;;4937606;29;20023;-74
2023/12/24 07:36:23;;;;;;;0.45;0.10;;;7.90;72.90;;;;;;4937532;29;20083;-75
2023/12/24 07:38:49;;;;;;;0.35;0.10;;;8.00;72.90;;;;;;4937556;29;20026;-75
2023/12/24 07:41:14;;;;;;;0.38;0.10;;;8.10;72.60;;;;;;4937761;29;20024;-75
2023/12/24 07:43:40;;;;;;;0.28;0.25;;;8.10;72.40;;;;;;4939389;29;20023;-74
2023/12/24 07:46:06;;;;;;;0.20;0.10;;;8.10;72.30;;;;;;4937311;29;20437;-74
2023/12/24 07:48:31;;;;;;;0.20;0.10;;;8.10;72.30;;;;;;4937758;29;20114;-75
2023/12/24 07:50:57;;;;;;;0.10;0.10;;;8.20;72.20;;;;;;4937411;29;20046;-74
2023/12/24 07:53:22;;;;;;;0.15;0.15;;;8.20;72.30;;;;;;4937406;29;20043;-74
2023/12/24 07:55:48;;;;;;;1.17;0.68;;;8.20;72.40;;;;;;4954562;29;20388;-74
2023/12/24 07:58:13;;;;;;;0.80;0.28;;;8.20;72.50;;;;;;4937240;29;20110;-75
2023/12/24 08:00:38;;;;;;;0.22;0.20;;;8.20;72.50;;;;;;4937156;29;20051;-74
2023/12/24 08:03:04;;;;;;;0.10;0.10;;;8.20;72.50;;;;;;4937033;29;20118;-75
2023/12/24 08:05:30;;;;;;;0.57;0.10;;;8.20;72.60;;;;;;4954491;29;20099;-75
2023/12/24 08:07:55;;;;;;;2.97;0.32;;;8.20;72.70;;;;;;4954414;29;20038;-75
2023/12/24 08:10:22;;;;;;;0.32;0.30;;;8.20;72.70;;;;;;4954086;29;20043;-75
2023/12/24 08:12:48;;;;;;;2.08;0.47;;;8.20;72.60;;;;;;4937091;29;20027;-75
2023/12/24 08:15:13;;;;;;;0.40;0.20;;;8.20;72.40;;;;;;4937495;29;20019;-75
2023/12/24 08:17:40;;;;;;;0.35;0.22;;;8.30;72.40;;;;;;4937342;29;20031;-74
2023/12/24 08:20:07;;;;;;;0.85;0.40;;;8.30;72.80;;;;;;4937796;29;20062;-74
2023/12/24 08:22:34;;;;;;;0.43;0.20;;;8.40;73.90;;;;;;4940625;29;20495;-73
2023/12/24 08:25:00;;;;;;;0.93;0.20;;;8.60;72.40;;;;;;4957936;28;20139;-76
2023/12/24 08:27:25;;;;;;;1.77;0.40;;;8.70;72.60;;;;;;4940989;29;20460;-74
2023/12/24 08:29:51;;;;;;;0.75;0.47;;;8.90;71.70;;;;;;4957842;29;20027;-74
2023/12/24 08:32:17;;;;;;;2.35;0.73;;;9.10;72.00;;;;;;4957918;29;20512;-76
2023/12/24 08:34:43;;;;;;;1.35;0.20;;;9.30;69.00;;;;;;4940446;29;20036;-76
2023/12/24 08:37:09;;;;;;;0.85;0.30;;;9.40;68.60;;;;;;4957792;29;20035;-75
2023/12/24 08:39:34;;;;;;;0.47;0.15;;;9.30;68.70;;;;;;4957624;29;20082;-78
2023/12/24 08:42:00;;;;;;;1.55;0.55;;;9.50;68.50;;;;;;4957606;29;20035;-78
2023/12/24 08:44:25;;;;;;;0.40;0.20;;;9.50;68.30;;;;;;4940264;29;20023;-74
2023/12/24 08:46:51;;;;;;;0.82;0.22;;;9.50;68.30;;;;;;4957437;29;20516;-76
2023/12/24 08:49:16;;;;;;;0.75;0.32;;;9.40;68.50;;;;;;4957509;29;20042;-75
2023/12/24 08:51:42;;;;;;;0.38;0.30;;;9.30;69.20;;;;;;4957396;29;20042;-74
2023/12/24 08:54:08;;;;;;;0.28;0.22;;;9.20;69.50;;;;;;4957411;28;20027;-75
2023/12/24 08:56:34;;;;;;;0.32;0.28;;;9.20;69.80;;;;;;4957187;29;20035;-75
2023/12/24 08:59:00;;;;;;;0.32;0.30;;;9.20;69.70;;;;;;4940391;29;20544;-75
2023/12/24 09:01:26;;;;;;;1.10;0.40;;;9.10;70.60;;;;;;4940206;29;20126;-75
2023/12/24 09:03:51;;;;;;;1.65;1.27;;;9.00;70.90;;;;;;4940656;29;20031;-75
2023/12/24 09:06:17;;;;;;;0.70;0.68;;;8.90;71.70;;;;;;4941770;29;20026;-74
2023/12/24 09:08:42;;;;;;;0.40;0.40;;;8.80;72.50;;;;;;4940173;29;20028;-73
2023/12/24 09:11:08;;;;;;;1.02;0.57;;;8.70;72.80;;;;;;4940117;29;20046;-75
2023/12/24 09:13:34;;;;;;;0.50;0.30;;;8.70;73.00;;;;;;4957041;29;20399;-74
2023/12/24 09:15:59;;;;;;;0.80;0.60;;;8.70;73.20;;;;;;4939991;29;20027;-74
2023/12/24 09:18:25;;;;;;;0.50;0.50;;;8.70;73.30;;;;;;4940240;29;20074;-73
2023/12/24 09:20:51;;;;;;;0.80;0.40;;;8.70;73.90;;;;;;4940540;29;20078;-74
2023/12/24 09:23:16;;;;;;;0.52;0.50;;;8.70;74.80;;;;;;4939942;29;20027;-74
2023/12/24 09:25:42;;;;;;;2.33;0.40;;;8.70;74.10;;;;;;4939801;29;20027;-74
2023/12/24 09:28:08;;;;;;;0.38;0.30;;;8.80;74.00;;;;;;4939767;29;20031;-74
2023/12/24 09:30:33;;;;;;;1.65;1.45;;;8.80;74.10;;;;;;4939569;29;20027;-74
2023/12/24 09:32:59;;;;;;;0.77;0.43;;;8.90;74.10;;;;;;4939697;29;20031;-73
2023/12/24 09:35:25;;;;;;;2.47;1.20;;;8.90;74.10;;;;;;4951620;28;20122;-81
2023/12/24 09:37:50;;;;;;;0.40;0.40;;;8.90;74.20;;;;;;4958518;28;20105;-78
2023/12/24 09:40:16;;;;;;;0.50;0.47;;;8.90;74.00;;;;;;4945288;29;20042;-78
2023/12/24 09:42:41;;;;;;;0.45;0.30;;;8.90;74.10;;;;;;4939456;29;20050;-77
2023/12/24 09:45:07;;;;;;;0.50;0.50;;;8.90;74.00;;;;;;4939519;29;20015;-75
2023/12/24 09:47:33;;;;;;;0.40;0.25;;;8.90;74.20;;;;;;4956469;29;20030;-77
2023/12/24 09:50:00;;;;;;;2.22;0.40;;;9.00;73.80;;;;;;4939295;29;20035;-77
2023/12/24 09:52:26;;;;;;;0.65;0.60;;;9.00;73.50;;;;;;4956861;28;20452;-75
2023/12/24 09:54:52;;;;;;;0.45;0.43;;;9.10;73.50;;;;;;4944250;29;20113;-76
2023/12/24 09:57:18;;;;;;;1.13;0.47;;;9.10;73.30;;;;;;4938458;29;20047;-76
2023/12/24 09:59:43;;;;;;;0.50;0.50;;;9.20;73.30;;;;;;4938846;29;20031;-76
2023/12/24 10:02:09;;;;;;;0.77;0.60;;;9.30;72.80;;;;;;4938723;29;20023;-75
2023/12/24 10:04:34;;;;;;;1.25;0.73;;;9.30;72.80;;;;;;4956033;29;20024;-77
2023/12/24 10:07:00;;;;;;;0.35;0.35;;;9.30;72.90;;;;;;4938531;29;20400;-77
2023/12/24 10:10:02;;;;;;;0.63;0.47;;;9.30;72.90;;;;;;4938622;29;20031;-75
2023/12/24 10:12:27;;;;;;;1.10;0.45;;;9.30;72.80;;;;;;4861998;29;20130;-74
2023/12/24 10:14:58;;;;;;;0.90;0.40;;;9.30;72.90;;;;;;4939900;29;20055;-75
2023/12/24 10:17:34;;;;;;;0.30;0.30;;;9.30;72.90;;;;;;4940835;29;20035;-76
2023/12/24 10:20:09;;;;;;;0.57;0.40;;;9.30;72.80;;;;;;4951291;28;20042;-75
2023/12/24 10:22:35;;;;;;;0.30;0.30;;;9.30;73.10;;;;;;4957524;28;20030;-75
2023/12/24 10:25:03;;;;;;;2.15;0.70;;;9.30;73.00;;;;;;4957427;28;20023;-75
2023/12/24 10:27:29;;;;;;;0.35;0.20;;;9.40;73.10;;;;;;4957842;28;20455;-78
2023/12/24 10:30:10;;;;;;;0.90;0.88;;;9.40;73.00;;;;;;4977333;28;20587;-73
2023/12/24 10:32:36;;;;;;;0.73;0.50;;;9.40;73.00;;;;;;4957699;28;20037;-75
2023/12/24 10:35:02;;;;;;;0.30;0.30;;;9.40;73.40;;;;;;4944635;29;20038;-75
2023/12/24 10:37:29;;;;;;;1.55;0.30;;;9.40;73.30;;;;;;4932024;29;20028;-75
2023/12/24 10:40:09;;;;;;;0.60;0.30;;;9.50;72.80;;;;;;4926219;29;20027;-77
2023/12/24 10:42:36;;;;;;;2.00;0.35;;;9.60;72.40;;;;;;4920039;29;20031;-74
2023/12/24 10:45:03;;;;;;;0.63;0.55;;;9.60;72.20;;;;;;4936387;29;20024;-76
2023/12/24 10:47:29;;;;;;;0.50;0.40;;;9.60;72.50;;;;;;4919539;29;20064;-75
2023/12/24 10:49:55;;;;;;;1.08;0.52;;;9.50;72.80;;;;;;4919410;29;20454;-76
2023/12/24 10:52:21;;;;;;;0.32;0.30;;;9.50;73.00;;;;;;4936064;29;20039;-78
2023/12/24 10:54:48;;;;;;;0.38;0.30;;;9.50;72.70;;;;;;4919530;29;20036;-77
2023/12/24 10:57:31;;;;;;;0.43;0.30;;;9.50;73.50;;;;;;4918777;29;20048;-75
2023/12/24 11:00:14;;;;;;;0.85;0.63;;;9.50;72.60;;;;;;4936101;29;20032;-77
2023/12/24 11:02:45;;;;;;;0.30;0.30;;;9.50;72.90;;;;;;4918767;29;20511;-74
2023/12/24 11:05:11;;;;;;;0.88;0.50;;;9.50;72.70;;;;;;4919271;29;20027;-74
2023/12/24 11:07:45;;;;;;;1.33;0.20;;;9.50;72.60;;;;;;4935532;29;20492;-75
2023/12/24 11:10:38;;;;;;;0.30;0.30;;;9.50;72.00;;;;;;4935639;29;20035;-75
2023/12/24 11:13:11;;;;;;;0.35;0.35;;;9.60;72.10;;;;;;4934995;29;20570;-76
2023/12/24 11:15:44;;;;;;;0.20;0.20;;;9.50;72.10;;;;;;4918747;29;20031;-75
2023/12/24 11:18:10;;;;;;;0.47;0.30;;;9.60;72.00;;;;;;4934521;29;20426;-75
2023/12/24 11:20:41;;;;;;;1.00;0.80;;;9.60;72.30;;;;;;4919122;29;20038;-75
2023/12/24 11:23:06;;;;;;;2.55;1.02;;;9.60;72.30;;;;;;4936577;29;20437;-75
2023/12/24 11:25:39;;;;;;;0.60;0.60;;;9.70;72.10;;;;;;4936087;29;20038;-75
2023/12/24 11:28:07;;;;;;;3.17;1.17;;;9.70;71.80;;;;;;4919068;29;20042;-75
2023/12/24 11:30:51;;;;;;;4.82;0.98;;;9.80;71.30;;;;;;4932067;29;20035;-76
2023/12/24 11:33:29;;;;;;;1.95;1.00;;;9.80;71.40;;;;;;4952216;29;20047;-75
2023/12/24 11:35:56;;;;;;;2.03;0.90;;;9.80;71.60;;;;;;4934937;29;20032;-74
2023/12/24 11:38:37;;;;;;;0.45;0.45;;;9.80;71.70;;;;;;4937889;29;20413;-75
2023/12/24 11:41:14;;;;;;;1.17;0.57;;;9.80;71.60;;;;;;4954750;29;20074;-76
2023/12/24 11:43:41;;;;;;;0.20;0.20;;;9.80;71.50;;;;;;4937637;29;20027;-74
2023/12/24 11:46:08;;;;;;;0.70;0.52;;;9.70;72.10;;;;;;4954859;29;20043;-77
2023/12/24 11:48:35;;;;;;;0.63;0.40;;;9.70;72.40;;;;;;4937855;29;20027;-76
2023/12/24 11:51:01;;;;;;;1.20;0.55;;;9.70;72.90;;;;;;4955105;29;20027;-77
2023/12/24 11:53:29;;;;;;;0.98;0.40;;;9.80;72.10;;;;;;4955251;29;20059;-76
2023/12/24 11:56:15;;;;;;;0.50;0.50;;;9.80;71.80;;;;;;4960530;28;20023;-75
2023/12/24 11:58:42;;;;;;;0.70;0.40;;;9.90;71.70;;;;;;4940769;29;20090;-73
2023/12/24 12:01:08;;;;;;;1.17;0.50;;;10.00;71.30;;;;;;4958578;29;20030;-75
2023/12/24 12:03:36;;;;;;;0.57;0.57;;;10.10;70.80;;;;;;4941158;29;20380;-77
2023/12/24 12:06:03;;;;;;;1.27;0.52;;;10.20;69.90;;;;;;4941455;29;20042;-76
2023/12/24 12:08:30;;;;;;;0.80;0.55;;;10.30;69.70;;;;;;4940967;29;20345;-76
2023/12/24 12:10:56;;;;;;;0.70;0.45;;;10.10;71.40;;;;;;4941187;29;20046;-75
2023/12/24 12:13:22;;;;;;;0.10;0.10;;;10.00;70.80;;;;;;4941198;29;20374;-75
2023/12/24 12:15:48;;;;;;;0.80;0.38;;;9.90;71.10;;;;;;4941053;29;20027;-76
2023/12/24 12:18:15;;;;;;;0.22;0.22;;;9.90;71.80;;;;;;4940911;29;20028;-74
2023/12/24 12:20:41;;;;;;;0.95;0.30;;;9.90;72.10;;;;;;4940873;29;20023;-76
2023/12/24 12:23:07;;;;;;;0.82;0.52;;;9.90;72.10;;;;;;4957733;29;20173;-75
2023/12/24 12:25:33;;;;;;;3.95;3.10;;;9.80;72.50;;;;;;4958065;29;20094;-76
2023/12/24 12:27:59;;;;;;;1.40;1.30;;;9.90;72.90;;;;;;4958352;29;20495;-75
2023/12/24 12:30:25;;;;;;;0.70;0.50;;;9.90;72.70;;;;;;4957367;29;20031;-75
2023/12/24 12:32:50;;;;;;;1.42;0.60;;;10.00;72.80;;;;;;4958083;28;20050;-74
2023/12/24 12:35:16;;;;;;;0.60;0.60;;;9.90;72.90;;;;;;4957919;29;20030;-76
2023/12/24 12:37:42;;;;;;;0.60;0.50;;;9.90;73.10;;;;;;4957954;29;20037;-76
2023/12/24 12:40:08;;;;;;;0.25;0.20;;;10.00;72.70;;;;;;4940826;29;20373;-76
2023/12/24 12:42:34;;;;;;;0.55;0.40;;;9.90;72.80;;;;;;4957750;28;20103;-76
2023/12/24 12:45:00;;;;;;;0.85;0.57;;;9.90;72.80;;;;;;4957599;29;20356;-77
2023/12/24 12:47:25;;;;;;;0.50;0.45;;;9.90;73.20;;;;;;4957723;29;20031;-74
2023/12/24 12:49:51;;;;;;;0.40;0.32;;;9.90;73.30;;;;;;4957675;28;20027;-75
2023/12/24 12:52:17;;;;;;;0.30;0.30;;;9.80;73.70;;;;;;4957857;29;20113;-75
2023/12/24 12:54:43;;;;;;;0.55;0.30;;;9.90;73.70;;;;;;4957999;29;20035;-75